Aviation Digital Data Service (ADDS)

Output produced by METARs form (0154 UTC 26 June 2017)
found at http://aviationweather.gov/adds/metars/
 
KBVI 252320Z 2600/2624 28008KT P6SM SKC 
     FM261800 26010G18KT P6SM VCTS BKN050CB AMD NOT SKED